X  Close Metar Aviation Weather Data     LEGR F.G.L. Airport Granada-Jaén Airport
Temperature
35°C Temperature
1°C Dewpoint
11% Humidity



Wind
5 KM/H
3 MPH
1 M/S
3 KTS



Calm
North
Current Conditions

Clear Clear
Pressure 1014.92 (hPa) - 29.97 (inHg)
Visibility 6.2 (mile) - 10 (km)
Airport
Airport-code LEGR

Location: F.G.L. Airport Granada-Jaén Airport
Distance: 56 (km)

Metar:
LEGR 181630Z VRB03KT CAVOK 35/01 Q1015

Time: 18-08-2022 18:30 CEST